Time;durP1;ratioP1;P1;durP2;ratioP2;P2;SDS_P1;SDS_P2;PMS_P1;PMS_P2;Temp;Humidity;BMP_temperature;BMP_pressure;BME280_temperature;BME280_humidity;BME280_pressure;Samples;Min_cycle;Max_cycle;Signal;HPM_P1;HPM_P2
2021/05/01 00:00:54;;;;;;;9.33;4.80;;;;;;;14.16;73.32;100130.67;1771588;80;21147;-59
2021/05/01 00:03:21;;;;;;;10.58;5.70;;;;;;;14.19;73.22;100131.70;1737269;80;21147;-60
2021/05/01 00:05:49;;;;;;;8.18;5.37;;;;;;;14.18;73.14;100133.99;1768152;79;21586;-59
2021/05/01 00:08:16;;;;;;;8.93;5.40;;;;;;;14.15;73.11;100140.91;1768698;80;21206;-59
2021/05/01 00:10:45;;;;;;;8.48;5.22;;;;;;;14.09;73.13;100140.20;1771306;80;21219;-59
2021/05/01 00:13:13;;;;;;;9.08;5.25;;;;;;;14.07;73.14;100137.71;1768651;80;21101;-60
2021/05/01 00:15:40;;;;;;;7.40;4.90;;;;;;;14.10;73.01;100134.77;1771488;80;21129;-60
2021/05/01 00:18:07;;;;;;;9.15;5.58;;;;;;;14.10;72.89;100132.13;1772384;79;21175;-60
2021/05/01 00:20:35;;;;;;;10.08;5.65;;;;;;;14.06;72.90;100125.95;1768698;80;21983;-60
2021/05/01 00:23:02;;;;;;;8.95;5.90;;;;;;;14.04;73.02;100127.93;1771149;80;21209;-60
2021/05/01 00:25:30;;;;;;;9.93;5.58;;;;;;;14.05;73.08;100129.58;1750735;80;21195;-60
2021/05/01 00:27:57;;;;;;;9.28;5.33;;;;;;;14.05;72.99;100126.42;1779561;80;21133;-60
2021/05/01 00:30:25;;;;;;;7.10;4.95;;;;;;;14.14;72.75;100126.03;1783684;79;21115;-60
2021/05/01 00:32:52;;;;;;;10.82;5.10;;;;;;;14.26;72.29;100122.66;1777648;80;23024;-60
2021/05/01 00:35:19;;;;;;;8.38;5.08;;;;;;;14.33;71.87;100118.91;1754067;80;21242;-60
2021/05/01 00:37:48;;;;;;;8.40;5.47;;;;;;;14.37;71.81;100120.25;1768684;80;21144;-60
2021/05/01 00:40:16;;;;;;;12.25;6.58;;;;;;;14.37;71.75;100114.95;1754296;80;21235;-60
2021/05/01 00:42:44;;;;;;;8.28;6.10;;;;;;;14.37;71.61;100126.86;1777090;79;21206;-60
2021/05/01 00:45:11;;;;;;;8.95;6.05;;;;;;;14.33;71.51;100125.02;1782876;80;21262;-60
2021/05/01 00:47:38;;;;;;;8.45;4.97;;;;;;;14.28;71.46;100129.44;1770008;80;21145;-60
2021/05/01 00:50:08;;;;;;;8.93;4.97;;;;;;;14.26;71.39;100137.20;1778881;79;21159;-60
2021/05/01 00:52:35;;;;;;;9.28;5.30;;;;;;;14.28;71.27;100145.32;1753860;80;21211;-60
2021/05/01 00:55:05;;;;;;;8.58;5.80;;;;;;;14.27;71.20;100144.15;1778581;80;21179;-60
2021/05/01 00:57:32;;;;;;;8.70;5.35;;;;;;;14.23;71.30;100142.80;1760214;80;21186;-60
2021/05/01 01:00:00;;;;;;;9.90;5.47;;;;;;;14.20;71.34;100147.07;1775383;80;21209;-60
2021/05/01 01:02:28;;;;;;;8.40;5.55;;;;;;;14.15;71.39;100147.52;1750719;80;21213;-60
2021/05/01 01:04:56;;;;;;;8.00;5.37;;;;;;;14.11;71.42;100160.73;1773318;80;21124;-60
2021/05/01 01:07:23;;;;;;;9.60;5.60;;;;;;;14.06;71.39;100165.64;1779944;80;21470;-60
2021/05/01 01:09:53;;;;;;;7.12;4.12;;;;;;;14.07;71.07;100160.20;1775739;80;22909;-60
2021/05/01 01:12:20;;;;;;;11.18;5.37;;;;;;;14.14;70.69;100163.08;1772538;79;21519;-60
2021/05/01 01:14:47;;;;;;;8.15;4.72;;;;;;;14.16;70.58;100158.45;1778761;80;21163;-60
2021/05/01 01:17:14;;;;;;;8.93;4.83;;;;;;;14.16;70.39;100155.81;1778624;80;21187;-60
2021/05/01 01:19:43;;;;;;;8.00;5.05;;;;;;;14.12;69.97;100154.44;1766604;80;21154;-60
2021/05/01 01:22:16;;;;;;;9.90;4.70;;;;;;;14.09;69.75;100162.70;1767746;80;21594;-60
2021/05/01 01:24:44;;;;;;;7.75;4.90;;;;;;;14.02;69.52;100162.47;1774996;79;21218;-61
2021/05/01 01:27:12;;;;;;;8.78;5.40;;;;;;;13.94;69.35;100173.79;1775979;80;21172;-60
2021/05/01 01:29:42;;;;;;;7.65;4.67;;;;;;;13.86;69.22;100180.31;1777920;79;21737;-61
2021/05/01 01:32:11;;;;;;;7.90;4.90;;;;;;;13.78;69.07;100181.55;1778815;79;21175;-60
2021/05/01 01:34:43;;;;;;;9.25;5.47;;;;;;;13.73;68.87;100179.84;1777184;78;21371;-61
2021/05/01 01:37:11;;;;;;;6.08;4.33;;;;;;;13.73;68.71;100186.45;1775661;80;21464;-60
2021/05/01 01:39:40;;;;;;;8.18;4.80;;;;;;;13.72;68.60;100182.98;1781072;80;21167;-61
2021/05/01 01:42:09;;;;;;;8.18;4.97;;;;;;;13.67;68.54;100186.56;1735005;80;21194;-61
2021/05/01 01:44:37;;;;;;;9.20;5.40;;;;;;;13.62;68.49;100193.28;1782649;78;21198;-60
2021/05/01 01:47:06;;;;;;;8.18;4.78;;;;;;;13.55;68.63;100195.18;1776265;80;21655;-60
2021/05/01 01:49:37;;;;;;;11.65;4.80;;;;;;;13.50;68.78;100195.25;1778381;80;21607;-60
2021/05/01 01:52:06;;;;;;;8.15;5.25;;;;;;;13.44;68.84;100191.40;1776480;78;21147;-61
2021/05/01 01:54:34;;;;;;;8.73;5.10;;;;;;;13.40;68.80;100197.97;1777366;80;21583;-60
2021/05/01 01:57:01;;;;;;;8.48;4.97;;;;;;;13.33;68.77;100196.86;1775850;80;21194;-60
2021/05/01 01:59:30;;;;;;;9.25;5.37;;;;;;;13.29;68.68;100198.94;1749530;80;21143;-60
2021/05/01 02:01:58;;;;;;;7.97;4.90;;;;;;;13.32;68.44;100204.47;1777578;79;21159;-60
2021/05/01 02:04:26;;;;;;;7.83;4.92;;;;;;;13.30;68.44;100211.18;1776673;80;21117;-60
2021/05/01 02:06:53;;;;;;;10.13;5.15;;;;;;;13.27;68.64;100212.78;1751980;80;21155;-60
2021/05/01 02:09:22;;;;;;;9.45;5.90;;;;;;;13.24;68.52;100213.56;1780705;80;21103;-61
2021/05/01 02:11:49;;;;;;;7.92;4.65;;;;;;;13.19;68.54;100220.59;1750239;80;21190;-60
2021/05/01 02:14:17;;;;;;;9.40;5.65;;;;;;;13.13;68.38;100219.38;1778239;78;21757;-60
2021/05/01 02:16:46;;;;;;;10.45;5.62;;;;;;;13.08;68.34;100228.22;1776070;80;21622;-60
2021/05/01 02:19:13;;;;;;;8.68;5.53;;;;;;;13.00;68.40;100236.02;1777179;80;21112;-60
2021/05/01 02:21:41;;;;;;;8.23;5.37;;;;;;;12.92;68.44;100234.56;1776610;79;22183;-60
2021/05/01 02:24:08;;;;;;;8.05;5.15;;;;;;;12.90;68.47;100244.45;1774934;80;22336;-60
2021/05/01 02:26:36;;;;;;;9.10;5.00;;;;;;;12.97;68.39;100236.30;1780136;78;21602;-60
2021/05/01 02:29:04;;;;;;;5.75;2.75;;;;;;;13.01;68.34;100239.84;1777041;80;21587;-60
2021/05/01 02:31:32;;;;;;;7.12;4.22;;;;;;;13.04;68.14;100238.70;1776846;78;21585;-60
2021/05/01 02:33:59;;;;;;;6.58;3.77;;;;;;;13.00;68.11;100239.48;1776405;80;21187;-60
2021/05/01 02:36:27;;;;;;;7.70;3.83;;;;;;;12.96;68.15;100234.16;1778447;78;21174;-60
2021/05/01 02:38:55;;;;;;;6.25;3.67;;;;;;;12.93;68.16;100234.92;1774463;80;21168;-60
2021/05/01 02:41:24;;;;;;;6.47;3.42;;;;;;;12.87;68.05;100244.23;1780623;80;21198;-60
2021/05/01 02:43:52;;;;;;;6.50;3.47;;;;;;;12.79;68.15;100250.23;1776597;78;21693;-60
2021/05/01 02:46:20;;;;;;;7.12;3.67;;;;;;;12.74;68.29;100249.81;1776381;80;21199;-60
2021/05/01 02:48:48;;;;;;;7.05;4.03;;;;;;;12.74;68.40;100248.50;1742436;80;21915;-60
2021/05/01 02:51:15;;;;;;;9.58;4.83;;;;;;;12.78;68.65;100253.83;1750534;80;21178;-60
2021/05/01 02:53:42;;;;;;;7.17;3.77;;;;;;;12.80;69.17;100252.38;1779997;78;21637;-60
2021/05/01 02:56:10;;;;;;;9.50;4.15;;;;;;;12.81;69.30;100250.09;1775488;80;21131;-60
2021/05/01 02:58:37;;;;;;;7.55;4.67;;;;;;;12.80;69.35;100253.20;1775510;80;21645;-60
2021/05/01 03:01:05;;;;;;;6.80;4.08;;;;;;;12.78;69.44;100252.52;1777891;80;21182;-60
2021/05/01 03:03:33;;;;;;;6.60;3.83;;;;;;;12.75;69.49;100248.83;1772039;78;21115;-60
2021/05/01 03:06:01;;;;;;;8.60;5.05;;;;;;;12.74;69.34;100257.73;1776154;80;21156;-61
2021/05/01 03:08:28;;;;;;;8.43;4.78;;;;;;;12.71;69.21;100260.66;1778979;79;21202;-60
2021/05/01 03:10:55;;;;;;;6.45;3.92;;;;;;;12.68;69.11;100268.02;1783320;79;21120;-59
2021/05/01 03:13:23;;;;;;;6.92;4.12;;;;;;;12.69;69.14;100274.45;1756483;80;21139;-61
2021/05/01 03:15:50;;;;;;;7.67;4.53;;;;;;;12.75;69.00;100273.09;1782986;80;21135;-60
2021/05/01 03:18:18;;;;;;;7.72;3.87;;;;;;;12.82;69.09;100276.83;1749763;80;21242;-60
2021/05/01 03:20:45;;;;;;;7.62;4.60;;;;;;;12.86;69.02;100272.95;1776510;80;21205;-65
2021/05/01 03:24:38;;;;;;;9.93;5.80;;;;;;;12.92;69.09;100282.10;1866885;75;22563;-61
2021/05/01 03:27:06;;;;;;;9.53;6.17;;;;;;;12.94;69.09;100285.43;1841040;77;21135;-60
2021/05/01 03:29:36;;;;;;;7.67;5.72;;;;;;;12.94;69.16;100282.30;1817495;76;21257;-64
2021/05/01 03:32:04;;;;;;;10.43;5.97;;;;;;;12.95;69.24;100283.15;1782581;78;21205;-60
2021/05/01 03:34:33;;;;;;;10.38;5.75;;;;;;;12.94;69.37;100282.30;1805050;77;21140;-61
2021/05/01 03:37:00;;;;;;;9.65;5.62;;;;;;;13.02;69.37;100289.52;1777271;78;21211;-61
2021/05/01 03:39:28;;;;;;;10.58;6.30;;;;;;;13.12;69.22;100300.09;1772385;78;21136;-61
2021/05/01 03:41:57;;;;;;;10.35;6.22;;;;;;;13.16;69.19;100296.17;1804687;77;22716;-61
2021/05/01 03:44:25;;;;;;;10.65;7.12;;;;;;;13.15;69.20;100297.99;1808202;77;21131;-61
2021/05/01 03:46:54;;;;;;;9.50;6.55;;;;;;;13.16;69.37;100300.14;1780721;77;21207;-61
2021/05/01 03:49:22;;;;;;;12.10;6.67;;;;;;;13.15;69.33;100303.27;1812418;78;21223;-60
2021/05/01 03:51:49;;;;;;;11.15;6.87;;;;;;;13.13;69.34;100302.59;1796052;78;21167;-61
2021/05/01 03:54:17;;;;;;;11.75;6.67;;;;;;;13.09;69.46;100308.29;1810463;78;21814;-61
2021/05/01 03:56:45;;;;;;;9.25;6.62;;;;;;;13.05;69.62;100310.38;1776225;80;21211;-62
2021/05/01 03:59:12;;;;;;;9.53;6.03;;;;;;;13.08;69.77;100304.82;1746047;80;21144;-60
2021/05/01 04:01:41;;;;;;;8.45;5.72;;;;;;;13.20;69.77;100316.07;1748392;80;21135;-61
2021/05/01 04:04:10;;;;;;;10.40;6.58;;;;;;;13.28;69.75;100323.27;1775814;79;21168;-61
2021/05/01 04:06:38;;;;;;;9.88;7.17;;;;;;;13.36;69.82;100328.71;1771358;80;21705;-61
2021/05/01 04:09:06;;;;;;;11.12;7.15;;;;;;;13.42;69.92;100336.08;1776101;79;21158;-61
2021/05/01 04:11:34;;;;;;;8.50;5.87;;;;;;;13.49;70.07;100335.02;1779269;80;21638;-62
2021/05/01 04:14:02;;;;;;;11.85;7.45;;;;;;;13.53;70.05;100339.89;1732144;81;21150;-63
2021/05/01 04:16:29;;;;;;;9.23;6.15;;;;;;;13.53;70.13;100339.03;1781033;78;21100;-63
2021/05/01 04:18:56;;;;;;;11.95;6.45;;;;;;;13.60;70.16;100346.77;1785629;79;22133;-63
2021/05/01 04:21:24;;;;;;;10.88;6.95;;;;;;;13.72;69.93;100347.42;1757959;80;21147;-63
2021/05/01 04:23:51;;;;;;;11.28;7.10;;;;;;;13.82;69.77;100346.89;1823297;77;21184;-63
2021/05/01 04:26:20;;;;;;;11.57;7.65;;;;;;;13.90;69.76;100347.01;1789209;79;21121;-63
2021/05/01 04:28:48;;;;;;;11.48;7.70;;;;;;;13.96;69.84;100348.72;1797725;78;21730;-63
2021/05/01 04:31:15;;;;;;;11.83;7.62;;;;;;;13.99;69.73;100342.65;1816856;77;21797;-63
2021/05/01 04:33:42;;;;;;;10.98;7.30;;;;;;;14.02;69.78;100342.83;1786893;79;21641;-62
2021/05/01 04:36:10;;;;;;;10.78;7.37;;;;;;;14.05;69.90;100341.22;1805799;78;21167;-64
2021/05/01 04:38:37;;;;;;;10.95;8.15;;;;;;;14.15;69.89;100348.62;1765394;80;21171;-62
2021/05/01 04:41:04;;;;;;;10.72;6.95;;;;;;;14.26;69.75;100345.78;1782469;80;21183;-62
2021/05/01 04:43:32;;;;;;;11.63;7.62;;;;;;;14.36;69.69;100344.91;1774065;79;21199;-61
2021/05/01 04:46:00;;;;;;;19.25;8.13;;;;;;;14.44;69.66;100352.45;1785125;78;21719;-61
2021/05/01 04:48:30;;;;;;;14.50;8.93;;;;;;;14.52;69.75;100353.51;1789708;78;21202;-61
2021/05/01 04:50:59;;;;;;;10.80;7.75;;;;;;;14.59;69.76;100353.28;1756164;80;21158;-61
2021/05/01 04:53:26;;;;;;;11.95;9.28;;;;;;;14.64;69.74;100349.22;1783596;78;21138;-62
2021/05/01 04:55:53;;;;;;;11.15;7.78;;;;;;;14.67;69.67;100352.86;1788913;78;21306;-62
2021/05/01 04:58:22;;;;;;;10.82;7.50;;;;;;;14.79;69.56;100352.65;1789142;78;21673;-66
2021/05/01 05:00:50;;;;;;;12.45;8.73;;;;;;;14.93;69.40;100349.95;1806313;78;21155;-68
2021/05/01 05:03:17;;;;;;;13.50;8.45;;;;;;;15.02;69.39;100347.73;1810591;77;21119;-66
2021/05/01 05:05:45;;;;;;;12.00;8.70;;;;;;;15.08;69.45;100340.98;1817140;77;21630;-65
2021/05/01 05:08:12;;;;;;;11.20;8.88;;;;;;;15.16;69.38;100339.72;1789476;79;21624;-70
2021/05/01 05:10:41;;;;;;;11.78;8.70;;;;;;;15.17;69.47;100338.25;1795327;79;21214;-66
2021/05/01 05:13:09;;;;;;;14.83;10.43;;;;;;;15.20;69.46;100343.75;1813571;78;21179;-64
2021/05/01 05:15:38;;;;;;;12.50;8.73;;;;;;;15.18;69.36;100334.63;1822983;77;21174;-66
2021/05/01 05:18:05;;;;;;;10.43;7.67;;;;;;;15.23;69.35;100344.27;1802550;78;21196;-65
2021/05/01 05:20:33;;;;;;;11.20;7.37;;;;;;;15.31;69.30;100340.83;1761631;80;21247;-65
2021/05/01 05:23:00;;;;;;;11.75;8.35;;;;;;;15.38;69.30;100341.89;1757281;80;21249;-65
2021/05/01 05:25:28;;;;;;;13.48;8.93;;;;;;;15.47;69.23;100344.10;1773918;79;21128;-67
2021/05/01 05:27:55;;;;;;;12.33;7.58;;;;;;;15.55;69.34;100344.63;1789603;80;21230;-66
2021/05/01 05:30:24;;;;;;;11.57;7.40;;;;;;;15.60;69.20;100337.03;1777293;78;21176;-65
2021/05/01 05:32:51;;;;;;;10.75;7.70;;;;;;;15.63;69.27;100336.73;1767150;79;22940;-66
2021/05/01 05:35:20;;;;;;;13.10;8.25;;;;;;;15.65;69.23;100339.22;1746101;80;21631;-64
2021/05/01 05:37:47;;;;;;;11.55;7.85;;;;;;;15.76;69.19;100342.47;1816096;79;21218;-64
2021/05/01 05:40:15;;;;;;;13.18;7.58;;;;;;;15.93;68.85;100339.91;1768016;80;21156;-64
2021/05/01 05:42:44;;;;;;;12.85;8.73;;;;;;;16.04;68.55;100336.13;1811845;78;21191;-65
2021/05/01 05:45:13;;;;;;;11.68;7.72;;;;;;;16.15;68.58;100342.48;1762836;80;21163;-64
2021/05/01 05:47:41;;;;;;;13.22;7.55;;;;;;;16.25;68.09;100343.69;1802187;78;21617;-64
2021/05/01 05:50:11;;;;;;;13.60;9.10;;;;;;;16.30;67.34;100340.05;1754890;79;21135;-66
2021/05/01 05:52:39;;;;;;;13.35;9.13;;;;;;;16.34;67.45;100337.42;1780282;79;21613;-65
2021/05/01 05:55:10;;;;;;;12.45;8.60;;;;;;;16.33;67.43;100344.53;1746895;80;21128;-62
2021/05/01 05:57:40;;;;;;;10.55;7.58;;;;;;;16.42;67.40;100347.22;1742808;80;21175;-65
2021/05/01 06:00:11;;;;;;;11.73;7.00;;;;;;;16.56;67.04;100359.03;1747389;80;21208;-65
2021/05/01 06:02:42;;;;;;;11.57;7.87;;;;;;;16.69;66.32;100351.42;1765314;80;21173;-65
2021/05/01 06:05:32;;;;;;;11.08;8.35;;;;;;;16.81;66.34;100349.28;1769331;80;21105;-65
2021/05/01 06:08:00;;;;;;;12.35;7.83;;;;;;;16.89;66.16;100353.31;1769172;80;21157;-65
2021/05/01 06:10:29;;;;;;;13.40;8.13;;;;;;;16.96;65.20;100348.17;1768997;80;21203;-65
2021/05/01 06:12:56;;;;;;;11.12;7.35;;;;;;;17.00;64.89;100346.86;1773052;80;21165;-65
2021/05/01 06:15:23;;;;;;;12.85;8.80;;;;;;;17.06;64.75;100345.70;1772103;80;21176;-69
2021/05/01 06:17:52;;;;;;;10.18;7.35;;;;;;;17.11;64.44;100360.30;1774289;79;21146;-71
2021/05/01 06:20:20;;;;;;;10.72;6.58;;;;;;;17.17;64.72;100359.14;1778281;80;21173;-69
2021/05/01 06:22:50;;;;;;;10.70;6.70;;;;;;;17.31;64.52;100360.80;1769653;78;21402;-66
2021/05/01 06:25:17;;;;;;;10.20;7.55;;;;;;;17.42;64.23;100360.47;1763941;80;21355;-70
2021/05/01 06:27:45;;;;;;;11.35;7.20;;;;;;;17.53;64.28;100357.44;1767996;79;21156;-70
2021/05/01 06:30:15;;;;;;;12.53;7.35;;;;;;;17.63;64.15;100359.44;1747860;80;21127;-68
2021/05/01 06:32:46;;;;;;;9.48;6.28;;;;;;;17.70;63.69;100355.60;1783145;80;21183;-67
2021/05/01 06:35:13;;;;;;;12.30;8.00;;;;;;;17.78;63.19;100354.73;1789278;80;21194;-68
2021/05/01 06:37:41;;;;;;;12.43;7.30;;;;;;;17.79;62.75;100357.23;1752403;80;21289;-68
2021/05/01 06:40:14;;;;;;;9.95;6.62;;;;;;;17.82;62.32;100361.39;1729081;81;21186;-65
2021/05/01 06:42:46;;;;;;;9.18;5.95;;;;;;;17.82;61.84;100360.88;1720509;80;21230;-70
2021/05/01 06:45:16;;;;;;;7.70;5.05;;;;;;;17.90;60.03;100367.20;1752502;81;21188;-69
2021/05/01 06:47:48;;;;;;;8.33;5.53;;;;;;;18.01;59.27;100362.85;1750808;81;21633;-69
2021/05/01 06:50:16;;;;;;;8.75;5.45;;;;;;;18.10;59.01;100367.13;1735038;81;21592;-67
2021/05/01 06:52:46;;;;;;;8.33;5.37;;;;;;;18.20;58.33;100366.93;1753727;80;21180;-65
2021/05/01 06:55:18;;;;;;;8.30;6.03;;;;;;;18.28;58.24;100364.23;1734666;81;21186;-64
2021/05/01 06:57:51;;;;;;;8.90;5.40;;;;;;;18.38;56.47;100377.34;1743546;80;21587;-67
2021/05/01 07:00:23;;;;;;;7.65;4.65;;;;;;;18.45;54.65;100365.49;1750606;81;21596;-68
2021/05/01 07:03:06;;;;;;;8.33;4.83;;;;;;;18.50;53.37;100363.95;1751385;80;21207;-68
2021/05/01 07:05:35;;;;;;;8.28;5.50;;;;;;;18.60;54.23;100368.24;1744431;81;21560;-71
2021/05/01 07:08:02;;;;;;;7.25;4.55;;;;;;;18.71;52.84;100369.16;1723365;80;21171;-71
2021/05/01 07:10:31;;;;;;;8.50;4.28;;;;;;;18.81;51.70;100375.11;1757827;80;21456;-66
2021/05/01 07:13:00;;;;;;;6.80;3.77;;;;;;;18.89;50.90;100367.06;1744242;81;21273;-71
2021/05/01 07:15:29;;;;;;;6.22;3.33;;;;;;;18.98;48.30;100367.00;1735003;80;21458;-64
2021/05/01 07:17:57;;;;;;;6.70;4.03;;;;;;;19.01;44.72;100367.47;1784237;79;21156;-65
2021/05/01 07:20:25;;;;;;;6.90;3.70;;;;;;;19.07;45.37;100360.10;1784547;80;21131;-66
2021/05/01 07:22:53;;;;;;;6.17;3.62;;;;;;;19.14;46.20;100359.39;1751446;80;21627;-67
2021/05/01 07:25:23;;;;;;;7.15;3.80;;;;;;;19.22;45.98;100356.14;1741091;79;22650;-69
2021/05/01 07:28:03;;;;;;;6.58;3.83;;;;;;;19.31;45.56;100356.38;1771099;78;21151;-70
2021/05/01 07:30:41;;;;;;;6.25;3.52;;;;;;;19.41;44.80;100365.98;1776228;78;21113;-69
2021/05/01 07:33:50;;;;;;;6.53;3.50;;;;;;;19.42;41.71;100367.66;1759112;80;21191;-72
2021/05/01 07:36:22;;;;;;;7.53;4.08;;;;;;;19.40;41.86;100366.50;1744518;79;21152;-68
2021/05/01 07:38:49;;;;;;;7.03;4.08;;;;;;;19.39;42.44;100360.01;1746852;80;21261;-66
2021/05/01 07:41:18;;;;;;;7.03;3.70;;;;;;;19.36;43.16;100363.85;1713181;81;21125;-67
2021/05/01 07:43:49;;;;;;;8.68;4.60;;;;;;;19.27;43.68;100361.77;1760749;79;21156;-68
2021/05/01 07:46:17;;;;;;;8.40;4.10;;;;;;;19.23;42.38;100358.30;1778819;80;21156;-66
2021/05/01 07:48:47;;;;;;;8.50;3.98;;;;;;;19.26;41.60;100360.09;1741983;80;21609;-68
2021/05/01 07:51:15;;;;;;;8.43;3.92;;;;;;;19.33;42.84;100351.38;1753907;79;21275;-66
2021/05/01 07:53:44;;;;;;;6.80;3.62;;;;;;;19.45;43.50;100360.59;1759216;79;21238;-66
2021/05/01 07:56:13;;;;;;;6.87;3.75;;;;;;;19.54;40.66;100356.85;1765381;79;21137;-67
2021/05/01 07:58:41;;;;;;;8.00;3.95;;;;;;;19.62;40.19;100350.61;1759607;79;21155;-67
2021/05/01 08:01:09;;;;;;;6.40;3.47;;;;;;;19.67;39.63;100353.05;1758652;79;21563;-67
2021/05/01 08:03:36;;;;;;;7.45;4.35;;;;;;;19.70;39.28;100356.36;1757343;79;21602;-65
2021/05/01 08:06:04;;;;;;;6.33;3.42;;;;;;;19.72;40.36;100361.00;1765746;79;21226;-66
2021/05/01 08:08:32;;;;;;;6.12;3.45;;;;;;;19.80;40.67;100363.13;1758286;80;21211;-66
2021/05/01 08:11:02;;;;;;;8.23;4.03;;;;;;;19.90;40.50;100367.35;1769600;79;21204;-65
2021/05/01 08:13:32;;;;;;;7.78;3.55;;;;;;;20.00;40.69;100365.23;1766567;79;21159;-68
2021/05/01 08:15:59;;;;;;;7.03;3.40;;;;;;;20.08;39.62;100365.13;1765600;79;21626;-68
2021/05/01 08:18:26;;;;;;;8.30;4.53;;;;;;;20.14;39.49;100364.40;1767199;79;21116;-64
2021/05/01 08:20:54;;;;;;;5.62;3.47;;;;;;;20.19;39.23;100362.00;1768052;79;21175;-65
2021/05/01 08:23:22;;;;;;;5.97;3.45;;;;;;;20.23;38.84;100360.59;1773389;79;21642;-65
2021/05/01 08:25:50;;;;;;;7.53;3.77;;;;;;;20.31;39.08;100362.83;1819973;78;21589;-66
2021/05/01 08:28:17;;;;;;;11.75;4.35;;;;;;;20.36;39.06;100363.95;1762476;77;21160;-67
2021/05/01 08:30:45;;;;;;;6.37;3.62;;;;;;;20.45;38.45;100371.34;1756405;80;21138;-61
2021/05/01 08:33:12;;;;;;;6.58;3.50;;;;;;;20.53;38.68;100375.76;1786443;80;21147;-68
2021/05/01 08:35:40;;;;;;;6.22;3.83;;;;;;;20.62;37.95;100365.77;1763159;79;21400;-67
2021/05/01 08:38:08;;;;;;;5.47;3.42;;;;;;;20.70;38.38;100374.53;1802327;78;21124;-63
2021/05/01 08:40:36;;;;;;;6.33;3.83;;;;;;;20.77;38.04;100367.39;1802535;77;21198;-64
2021/05/01 08:43:03;;;;;;;10.45;3.70;;;;;;;20.82;36.55;100374.85;1780951;80;21233;-64
2021/05/01 08:45:32;;;;;;;6.05;3.05;;;;;;;20.85;37.56;100373.14;1804404;78;21206;-64
2021/05/01 08:48:01;;;;;;;5.65;3.00;;;;;;;20.94;37.85;100374.66;1814197;78;21204;-64
2021/05/01 08:50:47;;;;;;;5.60;3.77;;;;;;;21.06;36.91;100384.86;1769033;79;21587;-67
2021/05/01 08:53:15;;;;;;;6.28;3.40;;;;;;;21.11;36.30;100382.42;1793342;78;21137;-66
2021/05/01 08:55:42;;;;;;;6.97;3.12;;;;;;;21.11;35.70;100375.73;1768035;78;21231;-64
2021/05/01 08:58:10;;;;;;;6.87;3.37;;;;;;;21.09;35.06;100375.11;1764686;80;21448;-62
2021/05/01 09:00:41;;;;;;;6.35;3.67;;;;;;;21.12;35.35;100371.54;1770583;79;21570;-61
2021/05/01 09:03:10;;;;;;;4.58;2.77;;;;;;;21.21;35.57;100371.41;1771850;79;21117;-66
2021/05/01 09:05:38;;;;;;;6.62;3.47;;;;;;;21.34;33.97;100377.69;1777529;79;22316;-62
2021/05/01 09:08:07;;;;;;;6.47;3.65;;;;;;;21.43;33.71;100374.88;1788578;78;21500;-66
2021/05/01 09:10:45;;;;;;;5.92;3.47;;;;;;;21.49;33.34;100384.84;1786682;78;21156;-67
2021/05/01 09:13:21;;;;;;;6.67;3.05;;;;;;;21.47;33.44;100383.70;1798924;77;21587;-65
2021/05/01 09:16:08;;;;;;;5.60;3.58;;;;;;;21.50;33.23;100383.80;1811069;77;21151;-66
2021/05/01 09:18:54;;;;;;;;;;;;;;;21.51;32.20;100380.11;1777593;80;21430;-66
2021/05/01 09:21:24;;;;;;;6.03;3.37;;;;;;;21.51;32.74;100376.92;1755622;80;20232;-66
2021/05/01 09:23:52;;;;;;;4.42;2.80;;;;;;;21.52;31.79;100373.75;1773404;79;21599;-65
2021/05/01 09:26:39;;;;;;;6.40;2.75;;;;;;;21.57;31.05;100366.45;1787772;78;21084;-62
2021/05/01 09:29:09;;;;;;;6.12;3.27;;;;;;;21.63;31.28;100366.50;1759634;79;21537;-63
2021/05/01 09:31:44;;;;;;;5.33;2.70;;;;;;;21.75;31.73;100363.28;1790383;78;21161;-65
2021/05/01 09:34:11;;;;;;;7.15;2.72;;;;;;;21.87;31.40;100371.06;1747499;80;21207;-66
2021/05/01 09:36:41;;;;;;;11.20;3.92;;;;;;;21.94;31.36;100377.31;1762551;80;21587;-66
2021/05/01 09:39:14;;;;;;;10.48;3.25;;;;;;;22.01;31.46;100374.15;1742731;80;21610;-67
2021/05/01 09:41:44;;;;;;;11.15;2.98;;;;;;;22.11;30.69;100364.91;1797939;78;21606;-65
2021/05/01 09:44:18;;;;;;;6.72;2.95;;;;;;;22.17;30.92;100368.14;1774844;80;21188;-64
2021/05/01 09:46:52;;;;;;;5.35;2.65;;;;;;;22.24;31.79;100362.28;1774686;80;21151;-68
2021/05/01 09:49:29;;;;;;;5.67;2.85;;;;;;;22.40;31.24;100363.30;1780499;80;21159;-68
2021/05/01 09:52:09;;;;;;;5.10;2.70;;;;;;;22.52;29.29;100358.19;1746862;80;21207;-66
2021/05/01 09:54:46;;;;;;;5.50;2.62;;;;;;;22.55;28.95;100360.99;1797203;78;21120;-69
2021/05/01 09:57:18;;;;;;;8.38;3.45;;;;;;;22.57;28.72;100361.09;1787311;80;21280;-70
2021/05/01 09:59:52;;;;;;;5.37;2.42;;;;;;;22.57;28.15;100359.75;1818813;78;21140;-69
2021/05/01 10:02:22;;;;;;;5.15;2.72;;;;;;;22.56;28.44;100358.61;1783015;80;21185;-67
2021/05/01 10:05:08;;;;;;;6.85;2.83;;;;;;;22.57;29.00;100362.42;1775992;80;21638;-67
2021/05/01 10:07:39;;;;;;;7.10;3.37;;;;;;;22.63;28.98;100358.13;1803640;77;21154;-67
2021/05/01 10:10:09;;;;;;;6.12;3.25;;;;;;;22.63;28.25;100364.84;1779136;79;21222;-69
2021/05/01 10:12:41;;;;;;;7.15;3.15;;;;;;;22.58;28.65;100360.59;1785523;78;21188;-68
2021/05/01 10:15:24;;;;;;;5.08;2.75;;;;;;;22.50;28.60;100358.09;1796054;78;21168;-66
2021/05/01 10:17:53;;;;;;;5.45;3.25;;;;;;;22.48;28.87;100360.13;1753477;80;21682;-67
2021/05/01 10:20:22;;;;;;;5.50;3.33;;;;;;;22.55;28.37;100354.30;1787635;79;21188;-72
2021/05/01 10:22:50;;;;;;;4.53;2.67;;;;;;;22.55;27.85;100351.61;1780565;78;21216;-68
2021/05/01 10:25:23;;;;;;;4.30;2.58;;;;;;;22.53;26.79;100349.66;1772116;80;21177;-69
2021/05/01 10:28:03;;;;;;;6.10;2.77;;;;;;;22.50;27.53;100354.07;1769875;80;21157;-65
2021/05/01 10:33:33;;;;;;;5.42;2.67;;;;;;;22.54;26.77;100347.27;1773478;80;21173;-67
2021/05/01 10:36:25;;;;;;;5.85;2.98;;;;;;;22.56;27.13;100344.70;1785639;79;21413;-67
2021/05/01 10:39:06;;;;;;;6.40;2.52;;;;;;;22.63;26.99;100339.36;1777261;79;21243;-66
2021/05/01 10:41:36;;;;;;;7.40;2.55;;;;;;;22.61;27.83;100335.53;1773402;79;21217;-66
2021/05/01 10:44:06;;;;;;;4.45;2.42;;;;;;;22.69;28.14;100343.89;1783352;79;21196;-63
2021/05/01 10:46:41;;;;;;;5.70;3.22;;;;;;;22.80;28.79;100347.32;1776973;80;21203;-65
2021/05/01 10:49:10;;;;;;;5.42;2.90;;;;;;;22.95;28.82;100343.11;1816974;78;21326;-64
2021/05/01 10:51:46;;;;;;;7.40;2.98;;;;;;;23.03;28.38;100343.41;1787677;79;21153;-64
2021/05/01 10:54:19;;;;;;;5.55;3.05;;;;;;;22.99;28.44;100337.62;1788751;80;21160;-65
2021/05/01 10:56:54;;;;;;;6.33;2.45;;;;;;;23.04;28.99;100341.05;1786984;78;21197;-65
2021/05/01 10:59:27;;;;;;;7.10;2.92;;;;;;;23.06;28.84;100339.00;1750947;80;21216;-61
2021/05/01 11:01:57;;;;;;;7.50;3.12;;;;;;;23.07;28.84;100337.17;1776942;79;21198;-61
2021/05/01 11:04:31;;;;;;;5.25;3.25;;;;;;;23.12;28.67;100336.84;1751233;80;21608;-59
2021/05/01 11:07:39;;;;;;;6.55;3.40;;;;;;;23.14;28.61;100330.75;1781304;79;21168;-59
2021/05/01 11:10:10;;;;;;;6.03;3.47;;;;;;;23.25;28.94;100327.12;1750530;80;21175;-69
2021/05/01 11:12:39;;;;;;;5.62;3.00;;;;;;;23.33;28.29;100325.08;1784831;79;21180;-69
2021/05/01 11:15:10;;;;;;;5.40;3.15;;;;;;;23.36;28.70;100317.92;1785311;79;21242;-64
2021/05/01 11:17:43;;;;;;;5.75;3.27;;;;;;;23.46;28.69;100316.69;1776139;80;21155;-68
2021/05/01 11:20:16;;;;;;;6.70;3.17;;;;;;;23.51;29.14;100322.25;1810756;77;21184;-64
2021/05/01 11:22:49;;;;;;;19.32;5.12;;;;;;;23.53;28.80;100326.89;1783705;80;21152;-66
2021/05/01 11:25:19;;;;;;;4.67;2.58;;;;;;;23.56;29.49;100322.45;1817936;78;21104;-62
2021/05/01 11:27:48;;;;;;;5.42;3.00;;;;;;;23.68;29.97;100318.59;1812568;78;21183;-61
2021/05/01 11:30:25;;;;;;;6.12;3.12;;;;;;;23.83;30.66;100311.67;1765737;79;21176;-64
2021/05/01 11:32:53;;;;;;;5.05;2.80;;;;;;;23.99;31.28;100306.32;1794445;79;21172;-65
2021/05/01 11:35:25;;;;;;;5.45;3.12;;;;;;;24.14;30.95;100306.91;1790705;79;21155;-64
2021/05/01 11:38:00;;;;;;;5.72;3.17;;;;;;;24.26;30.24;100304.36;1794017;78;21166;-64
2021/05/01 11:40:34;;;;;;;5.65;3.02;;;;;;;24.35;29.28;100307.61;1794262;79;21189;-64